Time;durP1;ratioP1;P1;durP2;ratioP2;P2;SDS_P1;SDS_P2;PMS_P1;PMS_P2;Temp;Humidity;BMP_temperature;BMP_pressure;BME280_temperature;BME280_humidity;BME280_pressure;Samples;Min_cycle;Max_cycle;Signal;HPM_P1;HPM_P2
2022/10/25 00:02:15;;;;;;;5.03;4.57;;;13.50;1.00;;;;;;4896145;29;20425;-68
2022/10/25 00:04:41;;;;;;;7.27;4.93;;;13.50;1.00;;;;;;4912571;29;20456;-68
2022/10/25 00:07:07;;;;;;;7.53;5.63;;;13.40;1.00;;;;;;4902086;29;20441;-70
2022/10/25 00:09:32;;;;;;;6.10;5.50;;;13.30;1.00;;;;;;4904958;29;20463;-69
2022/10/25 00:11:58;;;;;;;7.47;5.20;;;13.30;1.00;;;;;;4907503;29;20248;-68
2022/10/25 00:14:24;;;;;;;6.30;4.50;;;13.30;1.00;;;;;;4912546;29;20219;-67
2022/10/25 00:16:50;;;;;;;6.93;4.90;;;13.30;1.00;;;;;;4911990;29;20192;-69
2022/10/25 00:19:16;;;;;;;7.50;5.37;;;13.30;1.00;;;;;;4913893;29;20183;-69
2022/10/25 00:21:41;;;;;;;6.53;5.17;;;13.30;1.00;;;;;;4913685;29;20172;-68
2022/10/25 00:24:09;;;;;;;7.80;4.90;;;13.30;1.00;;;;;;4902582;29;20195;-70
2022/10/25 00:26:35;;;;;;;8.90;5.13;;;13.30;1.00;;;;;;4904158;29;20264;-69
2022/10/25 00:29:01;;;;;;;14.80;5.70;;;13.30;1.00;;;;;;4910362;29;20765;-69
2022/10/25 00:31:26;;;;;;;8.13;5.30;;;13.30;1.00;;;;;;4909340;29;20179;-70
2022/10/25 00:33:52;;;;;;;9.83;5.30;;;13.30;1.00;;;;;;4909397;29;20176;-69
2022/10/25 00:36:23;;;;;;;9.67;5.47;;;13.30;1.00;;;;;;4901888;29;20652;-69
2022/10/25 00:38:49;;;;;;;6.90;5.93;;;13.30;1.00;;;;;;4898372;29;20211;-69
2022/10/25 00:41:18;;;;;;;5.20;4.70;;;13.20;1.00;;;;;;4895981;29;20564;-69
2022/10/25 00:43:49;;;;;;;6.23;5.30;;;13.20;1.00;;;;;;4897458;29;20208;-69
2022/10/25 00:46:19;;;;;;;17.73;6.67;;;13.10;1.00;;;;;;4890853;29;20981;-69
2022/10/25 00:49:03;;;;;;;10.73;6.50;;;13.20;1.00;;;;;;4897826;29;20419;-69
2022/10/25 00:51:44;;;;;;;23.33;6.80;;;13.20;1.00;;;;;;4895747;29;20420;-69
2022/10/25 00:54:16;;;;;;;13.23;6.27;;;13.20;1.00;;;;;;4896998;29;20762;-69
2022/10/25 00:56:45;;;;;;;18.27;6.20;;;13.20;1.00;;;;;;4900881;29;21051;-67
2022/10/25 00:59:16;;;;;;;15.03;6.73;;;13.20;1.00;;;;;;4894639;29;20428;-69
2022/10/25 01:01:42;;;;;;;9.97;5.20;;;13.20;1.00;;;;;;4899963;29;20428;-67
2022/10/25 01:04:11;;;;;;;10.80;6.73;;;13.20;1.00;;;;;;4900394;29;20906;-70
2022/10/25 01:06:40;;;;;;;10.00;6.50;;;13.20;1.00;;;;;;4900180;29;20444;-69
2022/10/25 01:09:09;;;;;;;14.40;5.70;;;13.10;1.00;;;;;;4901056;29;20416;-71
2022/10/25 01:11:36;;;;;;;10.40;6.60;;;13.10;1.00;;;;;;4899263;29;20416;-68
2022/10/25 01:14:04;;;;;;;9.20;6.40;;;13.10;1.00;;;;;;4899261;29;20423;-69
2022/10/25 01:17:17;;;;;;;8.57;6.17;;;13.10;1.00;;;;;;4899757;29;20935;-70
2022/10/25 01:20:10;;;;;;;9.47;6.93;;;13.10;1.00;;;;;;4881752;29;20436;-69
2022/10/25 01:22:56;;;;;;;9.33;6.20;;;13.20;1.00;;;;;;4896488;29;20449;-69
2022/10/25 01:25:39;;;;;;;9.40;6.73;;;13.10;1.00;;;;;;4900086;29;20424;-69
2022/10/25 01:28:29;;;;;;;13.50;7.20;;;13.10;1.00;;;;;;4898997;29;20427;-70
2022/10/25 01:31:29;;;;;;;8.17;6.93;;;13.00;1.00;;;;;;4899547;29;20523;-69
2022/10/25 01:34:18;;;;;;;17.47;6.70;;;13.00;1.00;;;;;;4900936;29;20503;-69
2022/10/25 01:37:10;;;;;;;10.43;7.47;;;12.90;1.00;;;;;;4926700;23;21036;-67
2022/10/25 01:39:44;;;;;;;16.43;7.03;;;12.90;1.00;;;;;;4955887;28;20476;-67
2022/10/25 01:42:15;;;;;;;6.93;6.10;;;12.80;1.00;;;;;;4948962;28;20545;-67
2022/10/25 01:44:43;;;;;;;10.83;6.50;;;12.80;1.00;;;;;;4956614;28;20445;-67
2022/10/25 01:47:17;;;;;;;9.10;5.87;;;12.80;1.00;;;;;;4960854;28;20519;-67
2022/10/25 01:49:48;;;;;;;7.73;5.60;;;12.80;1.00;;;;;;4969601;28;20419;-67
2022/10/25 01:52:19;;;;;;;14.23;6.00;;;12.80;1.00;;;;;;4949423;28;20484;-67
2022/10/25 01:54:45;;;;;;;6.47;5.80;;;12.80;1.00;;;;;;4957083;28;20500;-67
2022/10/25 01:57:28;;;;;;;9.63;6.70;;;12.80;1.00;;;;;;4956198;28;20522;-67
2022/10/25 02:00:16;;;;;;;10.03;7.80;;;12.80;1.00;;;;;;4951660;28;20174;-67
2022/10/25 02:03:19;;;;;;;17.97;9.10;;;12.80;1.00;;;;;;4955527;28;20508;-67
2022/10/25 02:06:27;;;;;;;11.80;8.73;;;12.70;1.00;;;;;;4949100;28;20553;-67
2022/10/25 02:09:20;;;;;;;10.30;7.77;;;12.60;1.00;;;;;;4955923;28;20800;-67
2022/10/25 02:11:47;;;;;;;10.07;7.47;;;12.60;1.00;;;;;;4955524;28;20472;-67
2022/10/25 02:14:37;;;;;;;15.23;7.53;;;12.70;1.00;;;;;;4956506;28;20424;-67
2022/10/25 02:17:06;;;;;;;15.97;9.03;;;12.70;1.00;;;;;;4967816;28;20441;-67
2022/10/25 02:19:38;;;;;;;12.10;7.07;;;12.70;1.00;;;;;;4970275;28;20507;-67
2022/10/25 02:22:08;;;;;;;9.17;7.03;;;12.70;1.00;;;;;;4967591;28;20414;-67
2022/10/25 02:24:35;;;;;;;11.30;9.33;;;12.60;1.00;;;;;;4967049;28;20429;-67
2022/10/25 02:27:03;;;;;;;11.50;9.07;;;12.50;1.00;;;;;;4956355;28;20438;-67
2022/10/25 02:29:32;;;;;;;10.67;7.03;;;12.50;1.00;;;;;;4955491;28;20426;-67
2022/10/25 02:31:58;;;;;;;9.60;7.80;;;12.50;1.00;;;;;;4955708;28;20426;-67
2022/10/25 02:34:23;;;;;;;8.93;7.37;;;12.40;1.00;;;;;;4955509;28;20422;-66
2022/10/25 02:36:50;;;;;;;9.73;7.43;;;12.40;1.00;;;;;;4956096;28;20556;-67
2022/10/25 02:39:17;;;;;;;9.13;6.60;;;12.50;1.00;;;;;;4955469;28;20180;-67
2022/10/25 02:41:43;;;;;;;16.50;8.43;;;12.60;1.00;;;;;;4954799;28;20461;-67
2022/10/25 02:44:08;;;;;;;13.10;8.07;;;12.60;1.00;;;;;;4966787;28;21299;-67
2022/10/25 02:46:34;;;;;;;11.23;7.77;;;12.60;1.00;;;;;;4968798;28;20662;-67
2022/10/25 02:49:00;;;;;;;10.17;7.10;;;12.50;1.00;;;;;;4967527;28;20297;-67
2022/10/25 02:51:25;;;;;;;9.43;7.80;;;12.40;1.00;;;;;;4968167;28;20177;-67
2022/10/25 02:53:51;;;;;;;10.43;8.10;;;12.40;1.00;;;;;;4966645;28;20173;-67
2022/10/25 02:56:19;;;;;;;15.90;8.90;;;12.40;1.00;;;;;;4958675;28;20187;-67
2022/10/25 02:58:46;;;;;;;10.10;8.20;;;12.50;1.00;;;;;;4968969;28;20185;-68
2022/10/25 03:01:14;;;;;;;11.07;7.40;;;12.50;1.00;;;;;;4958958;28;20421;-68
2022/10/25 03:03:40;;;;;;;12.57;8.13;;;12.60;1.00;;;;;;4957811;28;20493;-67
2022/10/25 03:06:06;;;;;;;18.50;7.70;;;12.60;1.00;;;;;;4955270;28;20428;-67
2022/10/25 03:08:33;;;;;;;12.57;7.60;;;12.60;1.00;;;;;;4955213;28;20445;-67
2022/10/25 03:10:59;;;;;;;9.77;6.80;;;12.60;1.00;;;;;;4955366;28;20418;-67
2022/10/25 03:13:25;;;;;;;21.53;9.20;;;12.60;1.00;;;;;;4958148;28;20832;-67
2022/10/25 03:15:50;;;;;;;16.57;8.20;;;12.60;1.00;;;;;;4967095;28;20925;-67
2022/10/25 03:18:16;;;;;;;9.77;8.07;;;12.70;1.00;;;;;;4967347;28;20469;-67
2022/10/25 03:20:43;;;;;;;15.10;8.90;;;12.70;1.00;;;;;;4967539;28;20272;-67
2022/10/25 03:23:09;;;;;;;13.63;7.97;;;12.70;1.00;;;;;;4967218;28;20201;-68
2022/10/25 03:25:35;;;;;;;7.33;6.63;;;12.60;1.00;;;;;;4968716;28;20444;-68
2022/10/25 03:28:01;;;;;;;12.03;8.03;;;12.60;1.00;;;;;;4966880;28;20483;-68
2022/10/25 03:30:28;;;;;;;11.27;7.47;;;12.50;1.00;;;;;;4961899;28;20197;-68
2022/10/25 03:32:54;;;;;;;9.57;7.40;;;12.40;1.00;;;;;;4967042;28;20633;-68
2022/10/25 03:35:20;;;;;;;14.13;8.47;;;12.40;1.00;;;;;;4968875;28;20429;-68
2022/10/25 03:37:47;;;;;;;8.80;7.90;;;12.40;1.00;;;;;;4968759;28;20224;-68
2022/10/25 03:40:13;;;;;;;14.90;8.57;;;12.40;1.00;;;;;;4966575;28;20170;-68
2022/10/25 03:42:39;;;;;;;13.10;9.13;;;12.40;1.00;;;;;;4960573;28;20488;-68
2022/10/25 03:45:05;;;;;;;10.67;8.13;;;12.40;1.00;;;;;;4955815;28;20854;-68
2022/10/25 03:47:31;;;;;;;9.90;8.20;;;12.40;1.00;;;;;;4954248;28;20210;-68
2022/10/25 03:49:56;;;;;;;8.00;7.13;;;12.20;1.00;;;;;;4955461;28;20465;-68
2022/10/25 03:52:22;;;;;;;13.87;11.23;;;12.20;1.00;;;;;;4953830;28;20289;-68
2022/10/25 03:54:48;;;;;;;10.17;8.13;;;12.20;1.00;;;;;;4954080;28;20185;-68
2022/10/25 03:57:13;;;;;;;9.23;8.10;;;12.20;1.00;;;;;;4954869;28;20193;-68
2022/10/25 03:59:39;;;;;;;11.77;8.97;;;12.00;1.00;;;;;;4954546;28;20206;-68
2022/10/25 04:02:04;;;;;;;8.70;7.40;;;12.00;1.00;;;;;;4953877;28;20610;-68
2022/10/25 04:04:30;;;;;;;10.07;7.90;;;12.10;1.00;;;;;;4954303;28;20280;-68
2022/10/25 04:06:56;;;;;;;11.47;7.80;;;11.90;1.00;;;;;;4960524;28;20272;-68
2022/10/25 04:09:21;;;;;;;11.03;8.33;;;11.90;1.00;;;;;;4963274;28;20174;-68
2022/10/25 04:11:47;;;;;;;10.83;7.97;;;11.90;1.00;;;;;;4953359;28;20273;-69
2022/10/25 04:14:13;;;;;;;12.03;8.23;;;11.90;1.00;;;;;;4955227;28;20233;-68
2022/10/25 04:16:38;;;;;;;10.70;8.13;;;12.00;1.00;;;;;;4953643;28;20193;-68
2022/10/25 04:19:04;;;;;;;15.67;9.10;;;12.00;1.00;;;;;;4965821;28;20177;-68
2022/10/25 04:21:30;;;;;;;16.00;7.50;;;12.00;1.00;;;;;;4954950;28;20174;-68
2022/10/25 04:23:55;;;;;;;18.80;9.03;;;11.90;1.00;;;;;;4965404;28;20252;-68
2022/10/25 04:26:21;;;;;;;9.37;8.37;;;11.90;1.00;;;;;;4955299;28;20186;-68
2022/10/25 04:28:52;;;;;;;10.27;8.23;;;12.00;1.00;;;;;;4951639;28;20170;-68
2022/10/25 04:31:19;;;;;;;12.43;8.13;;;12.00;1.00;;;;;;4953205;28;20177;-68
2022/10/25 04:33:51;;;;;;;10.93;8.33;;;11.90;1.00;;;;;;4963799;28;20417;-68
2022/10/25 04:36:17;;;;;;;18.17;8.50;;;11.90;1.00;;;;;;4969849;28;20452;-68
2022/10/25 04:38:46;;;;;;;10.37;8.90;;;11.90;1.00;;;;;;4969832;28;20496;-68
2022/10/25 04:41:12;;;;;;;13.93;10.67;;;11.90;1.00;;;;;;4961296;28;20425;-68
2022/10/25 04:43:37;;;;;;;14.50;8.00;;;11.90;1.00;;;;;;4972122;28;21326;-68
2022/10/25 04:46:03;;;;;;;14.10;8.93;;;12.00;1.00;;;;;;4968304;28;20189;-68
2022/10/25 04:48:29;;;;;;;21.07;10.90;;;12.00;1.00;;;;;;4969846;28;20190;-68
2022/10/25 04:50:59;;;;;;;13.10;10.40;;;11.90;1.00;;;;;;4969065;28;20269;-68
2022/10/25 04:53:24;;;;;;;15.10;10.20;;;12.00;1.00;;;;;;4969994;28;20432;-68
2022/10/25 04:56:01;;;;;;;24.70;9.90;;;12.10;1.00;;;;;;4969655;28;20416;-69
2022/10/25 04:58:27;;;;;;;17.90;11.93;;;12.00;1.00;;;;;;4969934;28;20308;-69
2022/10/25 05:00:57;;;;;;;14.93;9.73;;;11.90;1.00;;;;;;4965928;28;20461;-68
2022/10/25 05:03:23;;;;;;;20.60;11.87;;;11.90;1.00;;;;;;4967425;28;20469;-69
2022/10/25 05:05:48;;;;;;;14.30;10.80;;;12.00;1.00;;;;;;4968794;28;20909;-70
2022/10/25 05:08:14;;;;;;;25.17;12.77;;;12.10;1.00;;;;;;4969245;28;20252;-69
2022/10/25 05:10:40;;;;;;;20.50;12.83;;;12.20;1.00;;;;;;4968825;28;20174;-69
2022/10/25 05:13:05;;;;;;;22.87;13.53;;;12.00;1.00;;;;;;4966829;28;20186;-68
2022/10/25 05:15:31;;;;;;;18.47;14.73;;;12.00;1.00;;;;;;4969014;28;20261;-69
2022/10/25 05:17:58;;;;;;;28.50;15.07;;;12.00;1.00;;;;;;4969650;28;20229;-71
2022/10/25 05:20:25;;;;;;;22.17;15.17;;;12.10;1.00;;;;;;4965861;28;20317;-69
2022/10/25 05:22:50;;;;;;;26.57;15.87;;;12.20;1.00;;;;;;4969302;28;20475;-69
2022/10/25 05:25:16;;;;;;;20.90;14.57;;;12.30;1.00;;;;;;4963594;28;20478;-69
2022/10/25 05:27:42;;;;;;;49.73;20.20;;;12.40;1.00;;;;;;4966451;28;20349;-70
2022/10/25 05:30:08;;;;;;;19.60;14.37;;;12.40;1.00;;;;;;4965231;28;20207;-69
2022/10/25 05:32:34;;;;;;;35.30;17.30;;;12.40;1.00;;;;;;4945977;28;20183;-69
2022/10/25 05:35:00;;;;;;;35.43;17.93;;;12.50;1.00;;;;;;4965455;28;20436;-70
2022/10/25 05:37:26;;;;;;;64.60;18.77;;;12.50;1.00;;;;;;4964841;28;20567;-69
2022/10/25 05:39:52;;;;;;;34.47;16.57;;;12.60;1.00;;;;;;4950917;28;20189;-68
2022/10/25 05:42:18;;;;;;;21.77;14.90;;;12.50;1.00;;;;;;4968613;28;20787;-67
2022/10/25 05:44:43;;;;;;;27.40;14.53;;;12.60;1.00;;;;;;4970149;28;20199;-67
2022/10/25 05:47:09;;;;;;;29.50;14.73;;;12.60;1.00;;;;;;4962906;28;20202;-69
2022/10/25 05:49:38;;;;;;;37.33;14.93;;;12.60;1.00;;;;;;4969687;28;20182;-67
2022/10/25 05:52:05;;;;;;;19.83;15.67;;;12.60;1.00;;;;;;4967584;28;20178;-68
2022/10/25 05:54:31;;;;;;;23.30;15.80;;;12.60;1.00;;;;;;4969388;28;20832;-68
2022/10/25 05:56:57;;;;;;;22.07;15.50;;;12.60;1.00;;;;;;4969490;28;20445;-69
2022/10/25 05:59:22;;;;;;;17.83;12.93;;;12.60;1.00;;;;;;4968167;28;20619;-69
2022/10/25 06:01:48;;;;;;;28.10;15.13;;;12.60;1.00;;;;;;4959231;28;20611;-69
2022/10/25 06:04:15;;;;;;;35.80;15.83;;;12.60;1.00;;;;;;4968442;28;20228;-67
2022/10/25 06:06:43;;;;;;;53.53;16.87;;;12.60;1.00;;;;;;4969802;28;20232;-68
2022/10/25 06:09:10;;;;;;;29.43;15.10;;;12.70;1.00;;;;;;4969296;28;20424;-68
2022/10/25 06:11:37;;;;;;;25.00;13.63;;;12.70;1.00;;;;;;4968649;28;20421;-68
2022/10/25 06:14:04;;;;;;;51.57;16.97;;;12.70;1.00;;;;;;4968537;28;20417;-68
2022/10/25 06:16:29;;;;;;;20.87;14.70;;;12.60;1.00;;;;;;4967038;28;20425;-68
2022/10/25 06:18:55;;;;;;;22.00;13.83;;;12.50;1.00;;;;;;4969214;28;20936;-69
2022/10/25 06:21:24;;;;;;;18.40;13.43;;;12.50;1.00;;;;;;4968473;28;20212;-68
2022/10/25 06:23:50;;;;;;;21.93;13.10;;;12.50;1.00;;;;;;4968106;28;20563;-69
2022/10/25 06:26:19;;;;;;;37.50;16.70;;;12.50;1.00;;;;;;4962768;28;20961;-69
2022/10/25 06:28:44;;;;;;;20.30;13.17;;;12.50;1.00;;;;;;4969156;28;20431;-70
2022/10/25 06:31:13;;;;;;;22.33;13.53;;;12.50;1.00;;;;;;4962358;28;20806;-70
2022/10/25 06:33:39;;;;;;;17.80;12.50;;;12.50;1.00;;;;;;4963012;28;20264;-70
2022/10/25 06:36:08;;;;;;;21.80;13.90;;;12.50;1.00;;;;;;4965165;28;20551;-70
2022/10/25 06:38:33;;;;;;;28.03;15.67;;;12.50;1.00;;;;;;4964827;28;20472;-69
2022/10/25 06:41:05;;;;;;;38.60;14.60;;;12.50;1.00;;;;;;4961962;28;20436;-69
2022/10/25 06:43:33;;;;;;;34.07;14.80;;;12.60;1.00;;;;;;4962438;28;20403;-68
2022/10/25 06:46:08;;;;;;;38.70;16.80;;;12.70;1.00;;;;;;4960603;28;20471;-70
2022/10/25 06:48:34;;;;;;;39.50;14.50;;;12.70;1.00;;;;;;4971141;28;20801;-69
2022/10/25 06:51:04;;;;;;;56.60;18.37;;;12.70;1.00;;;;;;4969633;28;20413;-68
2022/10/25 06:53:30;;;;;;;41.20;15.43;;;12.70;1.00;;;;;;4970216;28;20181;-69
2022/10/25 06:56:00;;;;;;;21.67;13.60;;;12.70;1.00;;;;;;4971670;28;20786;-69
2022/10/25 06:58:28;;;;;;;23.33;14.63;;;12.80;1.00;;;;;;4971112;28;20488;-68
2022/10/25 07:00:54;;;;;;;25.73;15.27;;;12.70;1.00;;;;;;4966284;28;20764;-69
2022/10/25 07:03:28;;;;;;;32.40;15.77;;;12.70;1.00;;;;;;4971191;28;20463;-68
2022/10/25 07:05:54;;;;;;;26.93;14.43;;;12.70;1.00;;;;;;4971456;28;20304;-69
2022/10/25 07:08:20;;;;;;;30.77;17.47;;;12.80;1.00;;;;;;4971049;28;21090;-69
2022/10/25 07:10:53;;;;;;;26.60;17.77;;;12.80;1.00;;;;;;4970595;28;20174;-70
2022/10/25 07:13:18;;;;;;;24.77;15.87;;;12.90;1.00;;;;;;4971178;28;20464;-69
2022/10/25 07:15:44;;;;;;;19.10;16.67;;;12.90;1.00;;;;;;4966319;28;20429;-70
2022/10/25 07:18:10;;;;;;;18.70;12.73;;;12.90;1.00;;;;;;4970393;28;20193;-70
2022/10/25 07:20:35;;;;;;;24.63;17.10;;;13.00;1.00;;;;;;4970439;28;20642;-69
2022/10/25 07:23:01;;;;;;;21.00;15.23;;;13.00;1.00;;;;;;4970929;28;20272;-68
2022/10/25 07:25:26;;;;;;;18.87;13.90;;;13.10;1.00;;;;;;4968551;28;20208;-68
2022/10/25 07:27:52;;;;;;;22.97;13.10;;;13.10;1.00;;;;;;4970783;28;20189;-70
2022/10/25 07:30:18;;;;;;;51.23;15.33;;;13.10;1.00;;;;;;4969964;28;20528;-70
2022/10/25 07:32:43;;;;;;;25.37;14.80;;;13.10;1.00;;;;;;4969321;28;20281;-70
2022/10/25 07:35:09;;;;;;;39.43;16.53;;;13.20;1.00;;;;;;4970218;28;20224;-68
2022/10/25 07:37:35;;;;;;;50.27;17.17;;;13.20;1.00;;;;;;4968363;28;20300;-67
2022/10/25 07:40:00;;;;;;;29.07;14.87;;;13.20;1.00;;;;;;4970531;28;20635;-69
2022/10/25 07:42:26;;;;;;;22.27;14.20;;;13.20;1.00;;;;;;4968932;28;20185;-70
2022/10/25 07:44:52;;;;;;;64.63;18.40;;;13.30;1.00;;;;;;4969055;28;20170;-69
2022/10/25 07:47:17;;;;;;;78.80;20.30;;;13.30;1.00;;;;;;4968174;28;20189;-68
2022/10/25 07:49:43;;;;;;;35.50;16.30;;;13.40;1.00;;;;;;4970776;28;20591;-70
2022/10/25 07:52:10;;;;;;;25.23;15.40;;;13.40;1.00;;;;;;4969264;28;20480;-70
2022/10/25 07:54:35;;;;;;;27.47;15.10;;;13.40;1.00;;;;;;4970687;28;20264;-70
2022/10/25 07:57:01;;;;;;;24.80;14.13;;;13.50;1.00;;;;;;4960361;28;20438;-69
2022/10/25 07:59:27;;;;;;;36.37;14.73;;;13.50;1.00;;;;;;4961828;28;20264;-70
2022/10/25 08:01:53;;;;;;;31.80;15.23;;;13.50;1.00;;;;;;4968885;28;20243;-68
2022/10/25 08:04:18;;;;;;;29.57;14.43;;;13.50;1.00;;;;;;4969334;28;20248;-67
2022/10/25 08:06:44;;;;;;;29.23;15.40;;;13.60;1.00;;;;;;4969564;28;20574;-67
2022/10/25 08:09:10;;;;;;;30.23;16.10;;;13.70;1.00;;;;;;4969685;28;20166;-69
2022/10/25 08:11:35;;;;;;;34.60;15.27;;;13.70;1.00;;;;;;4949556;28;20624;-66
2022/10/25 08:14:01;;;;;;;38.23;15.23;;;13.80;1.00;;;;;;4950647;29;20269;-67
2022/10/25 08:16:27;;;;;;;18.63;13.40;;;13.80;1.00;;;;;;4961406;28;20186;-68
2022/10/25 08:18:52;;;;;;;18.20;13.10;;;13.90;1.00;;;;;;4967421;28;20297;-67
2022/10/25 08:21:18;;;;;;;18.07;14.37;;;14.00;1.00;;;;;;4969048;28;20185;-70
2022/10/25 08:23:44;;;;;;;14.80;12.13;;;14.00;1.00;;;;;;4969879;28;20201;-68
2022/10/25 08:26:09;;;;;;;19.07;12.50;;;14.00;1.00;;;;;;4968642;28;20176;-67
2022/10/25 08:28:35;;;;;;;18.80;12.87;;;14.00;1.00;;;;;;4969557;28;20296;-69
2022/10/25 08:31:03;;;;;;;67.53;17.50;;;14.20;1.00;;;;;;4968191;28;20709;-69
2022/10/25 08:33:29;;;;;;;53.77;17.50;;;14.20;1.00;;;;;;4968063;28;20201;-68
2022/10/25 08:35:55;;;;;;;37.80;14.60;;;14.30;1.00;;;;;;4969872;28;20560;-68
2022/10/25 08:38:20;;;;;;;30.67;14.03;;;14.40;1.00;;;;;;4968531;28;20610;-68
2022/10/25 08:41:13;;;;;;;28.07;12.93;;;14.40;1.00;;;;;;4965939;28;20185;-68
2022/10/25 08:43:56;;;;;;;14.73;12.20;;;14.40;1.00;;;;;;4968284;28;20208;-68
2022/10/25 08:46:42;;;;;;;19.17;13.27;;;14.40;1.00;;;;;;4968741;28;20425;-68
2022/10/25 08:49:26;;;;;;;65.63;17.77;;;14.40;1.00;;;;;;4969516;28;20508;-67
2022/10/25 08:51:53;;;;;;;58.57;19.70;;;14.50;1.00;;;;;;4967743;28;20413;-69
2022/10/25 08:54:36;;;;;;;30.00;13.57;;;14.40;1.00;;;;;;4969513;28;20447;-70
2022/10/25 08:57:15;;;;;;;17.57;14.40;;;14.40;1.00;;;;;;4969098;28;20540;-69
2022/10/25 08:59:44;;;;;;;15.53;13.13;;;14.40;1.00;;;;;;4955710;28;20443;-69
2022/10/25 09:02:22;;;;;;;15.60;12.90;;;14.40;1.00;;;;;;4968308;28;20420;-69
2022/10/25 09:04:48;;;;;;;19.53;13.13;;;14.50;1.00;;;;;;4970136;28;20416;-68
2022/10/25 09:07:52;;;;;;;17.10;13.80;;;14.60;1.00;;;;;;4969494;28;20901;-69
2022/10/25 09:10:54;;;;;;;46.47;15.27;;;14.70;1.00;;;;;;4966098;28;20533;-69
2022/10/25 09:13:33;;;;;;;37.90;14.43;;;14.90;1.00;;;;;;4952379;28;20456;-69
2022/10/25 09:16:09;;;;;;;22.47;12.37;;;15.20;1.00;;;;;;4967375;28;20425;-69
2022/10/25 09:18:56;;;;;;;27.43;12.43;;;15.50;1.00;;;;;;4973409;28;21089;-70
2022/10/25 09:21:51;;;;;;;18.27;9.40;;;15.90;99.90;;;;;;4972194;28;21046;-68
2022/10/25 09:24:27;;;;;;;11.17;9.13;;;16.30;1.00;;;;;;4972859;28;20461;-68
2022/10/25 09:27:10;;;;;;;17.50;8.60;;;16.80;65.00;;;;;;4973167;28;20483;-69
2022/10/25 09:29:57;;;;;;;18.03;7.90;;;17.40;1.00;;;;;;4968731;28;20417;-69
2022/10/25 09:32:43;;;;;;;9.07;7.70;;;17.80;99.90;;;;;;4971737;28;20423;-69
2022/10/25 09:35:29;;;;;;;11.17;8.10;;;18.00;1.00;;;;;;4972974;28;20427;-70
2022/10/25 09:38:16;;;;;;;13.20;7.77;;;18.00;99.90;;;;;;4972540;28;20452;-69
2022/10/25 09:40:55;;;;;;;12.80;7.80;;;17.90;99.90;;;;;;4972151;28;20413;-69
2022/10/25 09:43:27;;;;;;;15.53;11.40;;;17.80;93.00;;;;;;4972441;28;20452;-69
2022/10/25 09:46:02;;;;;;;11.47;8.83;;;17.80;99.90;;;;;;4962205;28;20413;-69
2022/10/25 09:48:36;;;;;;;13.80;8.47;;;17.90;99.90;;;;;;4972826;28;22121;-69
2022/10/25 09:51:23;;;;;;;15.50;9.00;;;18.20;1.00;;;;;;4971988;28;20405;-68
2022/10/25 09:53:50;;;;;;;15.77;8.10;;;18.30;1.00;;;;;;4973075;28;20480;-71
2022/10/25 09:56:16;;;;;;;22.93;8.53;;;18.40;1.00;;;;;;4972354;28;20456;-71
2022/10/25 09:58:46;;;;;;;41.97;10.80;;;18.30;1.00;;;;;;4972938;28;20468;-70
2022/10/25 10:01:18;;;;;;;49.67;12.23;;;18.30;1.00;;;;;;4971377;28;20830;-70
2022/10/25 10:03:44;;;;;;;91.87;18.47;;;18.40;1.00;;;;;;4971311;28;20482;-69
2022/10/25 10:06:12;;;;;;;92.37;15.17;;;18.50;1.00;;;;;;4972344;28;20413;-70
2022/10/25 10:08:43;;;;;;;74.77;14.83;;;18.60;99.90;;;;;;4971000;28;20222;-69
2022/10/25 10:11:16;;;;;;;31.40;8.83;;;18.60;99.90;;;;;;4971255;28;20409;-69
2022/10/25 10:13:45;;;;;;;43.67;11.90;;;18.40;99.90;;;;;;4971506;28;20417;-69
2022/10/25 10:16:25;;;;;;;188.73;26.57;;;18.40;99.90;;;;;;4961283;28;20556;-69
2022/10/25 10:19:11;;;;;;;76.57;15.67;;;18.60;99.90;;;;;;4972436;28;20408;-69
2022/10/25 10:21:42;;;;;;;28.03;7.93;;;18.80;99.90;;;;;;4970951;28;20960;-70
2022/10/25 10:24:32;;;;;;;68.87;12.93;;;18.80;99.90;;;;;;4971364;28;20456;-69
2022/10/25 10:27:00;;;;;;;47.67;10.03;;;18.80;99.90;;;;;;4959723;28;20892;-69
2022/10/25 10:29:35;;;;;;;55.27;12.30;;;18.80;99.90;;;;;;4967093;28;20533;-70
2022/10/25 10:32:20;;;;;;;13.40;6.00;;;18.80;59.80;;;;;;4970823;28;20496;-70
2022/10/25 10:34:52;;;;;;;8.47;5.17;;;18.70;33.00;;;;;;4970632;28;20471;-69
2022/10/25 10:37:25;;;;;;;14.10;6.77;;;18.90;89.70;;;;;;4971597;28;20457;-70
2022/10/25 10:39:58;;;;;;;39.73;9.40;;;18.90;41.10;;;;;;4972097;28;20415;-70
2022/10/25 10:42:32;;;;;;;29.73;7.90;;;18.90;26.00;;;;;;4970891;28;20914;-70
2022/10/25 10:45:00;;;;;;;75.00;12.10;;;19.00;1.00;;;;;;4971888;28;20416;-70
2022/10/25 10:47:35;;;;;;;46.33;9.40;;;19.00;1.00;;;;;;4963499;28;20437;-69
2022/10/25 10:50:08;;;;;;;39.73;9.50;;;19.20;1.00;;;;;;4971263;28;20869;-69
2022/10/25 10:52:43;;;;;;;40.87;10.50;;;19.20;1.00;;;;;;4971166;28;20405;-70
2022/10/25 10:55:23;;;;;;;22.50;8.50;;;19.30;1.00;;;;;;4971217;28;20419;-70
2022/10/25 10:57:52;;;;;;;15.27;7.37;;;19.50;1.00;;;;;;4962658;28;20429;-69
2022/10/25 11:00:22;;;;;;;29.80;10.20;;;19.50;1.00;;;;;;4970701;28;20429;-72
2022/10/25 11:02:48;;;;;;;98.23;14.00;;;19.60;1.00;;;;;;4970442;28;20460;-69
2022/10/25 11:05:20;;;;;;;77.83;15.30;;;19.50;1.00;;;;;;4969934;28;20413;-69
2022/10/25 11:08:11;;;;;;;91.00;14.30;;;19.60;1.00;;;;;;4970976;28;20417;-69
2022/10/25 11:10:38;;;;;;;34.80;9.97;;;19.70;1.00;;;;;;4968765;28;20522;-69
2022/10/25 11:13:17;;;;;;;41.70;11.20;;;19.80;1.00;;;;;;4985201;28;20422;-70
2022/10/25 11:16:09;;;;;;;52.60;11.30;;;19.80;1.00;;;;;;4960554;28;20874;-69
2022/10/25 11:18:49;;;;;;;45.83;9.90;;;19.80;1.00;;;;;;4959285;28;20536;-68
2022/10/25 11:22:07;;;;;;;45.17;9.80;;;19.80;1.00;;;;;;4969704;28;20484;-69
2022/10/25 11:24:51;;;;;;;31.43;7.10;;;19.90;1.00;;;;;;4945042;28;20552;-69
2022/10/25 11:27:23;;;;;;;14.17;5.83;;;20.00;1.00;;;;;;4970531;28;20436;-69
2022/10/25 11:30:09;;;;;;;11.03;5.57;;;20.00;1.00;;;;;;4969970;28;20413;-69
2022/10/25 11:32:35;;;;;;;51.53;7.73;;;20.00;1.00;;;;;;4941772;28;20417;-70
2022/10/25 11:35:15;;;;;;;91.00;10.90;;;20.10;1.00;;;;;;4969880;28;20417;-68
2022/10/25 11:37:55;;;;;;;38.80;7.63;;;20.00;1.00;;;;;;4968333;28;20224;-70
2022/10/25 11:40:31;;;;;;;24.47;5.50;;;20.10;1.00;;;;;;4970707;28;20424;-68
2022/10/25 11:43:34;;;;;;;19.37;3.63;;;20.10;1.00;;;;;;4971158;28;20476;-70
2022/10/25 11:46:26;;;;;;;14.93;3.67;;;20.10;1.00;;;;;;4963890;28;20417;-68
2022/10/25 11:49:03;;;;;;;6.77;2.87;;;20.10;1.00;;;;;;4962626;28;20441;-70
2022/10/25 11:51:58;;;;;;;38.27;6.07;;;20.10;1.00;;;;;;4968927;28;20929;-68
2022/10/25 11:54:43;;;;;;;63.80;8.53;;;20.00;1.00;;;;;;4970640;28;20895;-68
2022/10/25 11:57:37;;;;;;;82.50;11.73;;;19.90;1.00;;;;;;4968973;28;20465;-69
2022/10/25 12:00:21;;;;;;;70.97;8.20;;;20.10;1.00;;;;;;4969638;28;20501;-69
2022/10/25 12:03:19;;;;;;;32.07;6.70;;;20.00;1.00;;;;;;4967920;28;20547;-69
2022/10/25 12:06:10;;;;;;;37.50;4.00;;;20.00;1.00;;;;;;4969734;28;20512;-69
2022/10/25 12:09:10;;;;;;;54.07;7.53;;;20.00;1.00;;;;;;4957817;28;20468;-69
2022/10/25 12:11:45;;;;;;;7.90;3.20;;;20.00;1.00;;;;;;4957538;28;20435;-68
2022/10/25 12:14:15;;;;;;;9.50;3.60;;;19.90;1.00;;;;;;4964684;28;20461;-68
2022/10/25 12:16:42;;;;;;;24.80;4.30;;;19.90;1.00;;;;;;4959172;28;21177;-68
2022/10/25 12:19:18;;;;;;;10.47;3.20;;;19.90;1.00;;;;;;4960672;28;20440;-66
2022/10/25 12:21:50;;;;;;;20.63;3.93;;;19.80;1.00;;;;;;4962287;28;20433;-66
2022/10/25 12:24:23;;;;;;;18.40;5.40;;;19.80;1.00;;;;;;4969880;28;20460;-67
2022/10/25 12:26:53;;;;;;;57.70;9.57;;;19.80;1.00;;;;;;4963021;28;20544;-68
2022/10/25 12:29:32;;;;;;;82.37;9.80;;;19.90;1.00;;;;;;4969348;28;20412;-66
2022/10/25 12:32:00;;;;;;;9.83;4.07;;;19.60;1.00;;;;;;4968854;28;20543;-68
2022/10/25 12:35:01;;;;;;;24.80;5.20;;;19.50;1.00;;;;;;4961946;28;20437;-68
2022/10/25 12:37:41;;;;;;;67.87;8.50;;;19.50;1.00;;;;;;4961016;28;20857;-68
2022/10/25 12:40:15;;;;;;;26.80;4.23;;;19.40;1.00;;;;;;4969959;28;20557;-68
2022/10/25 12:43:15;;;;;;;21.23;3.87;;;19.10;1.00;;;;;;4968934;28;20409;-68
2022/10/25 12:46:23;;;;;;;9.60;3.10;;;19.20;1.00;;;;;;4965679;28;21181;-67
2022/10/25 12:49:06;;;;;;;4.90;2.07;;;19.20;1.00;;;;;;4958530;28;20439;-67
2022/10/25 12:51:58;;;;;;;4.57;2.37;;;19.10;1.00;;;;;;4971045;28;20444;-69
2022/10/25 12:54:56;;;;;;;5.00;2.37;;;18.90;1.00;;;;;;4972836;28;20433;-69
2022/10/25 12:58:07;;;;;;;33.70;5.20;;;18.70;1.00;;;;;;4965218;28;20453;-68
2022/10/25 13:01:14;;;;;;;13.07;3.13;;;18.70;1.00;;;;;;4967181;28;20433;-68
2022/10/25 13:04:12;;;;;;;10.53;3.30;;;18.70;1.00;;;;;;4973514;28;20460;-67
2022/10/25 13:06:43;;;;;;;32.63;4.00;;;18.80;1.00;;;;;;4957494;28;20425;-66
2022/10/25 13:09:12;;;;;;;22.30;3.60;;;18.70;1.00;;;;;;4973595;28;20409;-67
2022/10/25 13:11:47;;;;;;;11.27;2.60;;;18.70;1.00;;;;;;4972390;28;20467;-68